createdAt,value
2017-07-03T00:00:51.314Z,24.27
2017-07-03T00:01:51.019Z,24.25
2017-07-03T00:02:51.367Z,24.2
2017-07-03T00:03:51.093Z,24.2
2017-07-03T00:04:51.430Z,24.3
2017-07-03T00:05:51.138Z,24.3
2017-07-03T00:06:51.479Z,24.25
2017-07-03T00:07:51.516Z,24.27
2017-07-03T00:08:51.537Z,24.22
2017-07-03T00:09:51.245Z,24.25
2017-07-03T00:10:51.597Z,24.27
2017-07-03T00:11:51.615Z,24.22
2017-07-03T00:12:51.655Z,24.24
2017-07-03T00:13:51.672Z,24.2
2017-07-03T00:14:51.710Z,24.27
2017-07-03T00:15:51.730Z,24.27
2017-07-03T00:16:51.757Z,24.27
2017-07-03T00:17:51.481Z,24.25
2017-07-03T00:18:51.812Z,24.22
2017-07-03T00:19:51.844Z,24.15
2017-07-03T00:20:51.563Z,24.31
2017-07-03T00:21:51.902Z,24.24
2017-07-03T00:22:51.927Z,24.27
2017-07-03T00:23:51.952Z,24.27
2017-07-03T00:24:51.673Z,24.22
2017-07-03T00:25:52.009Z,24.18
2017-07-03T00:26:51.723Z,24.2
2017-07-03T00:27:52.075Z,24.2
2017-07-03T00:28:52.092Z,24.16
2017-07-03T00:29:51.809Z,24.18
2017-07-03T00:30:51.522Z,24.25
2017-07-03T00:31:52.178Z,24.16
2017-07-03T00:32:51.583Z,24.22
2017-07-03T00:33:51.911Z,24.2
2017-07-03T00:34:52.266Z,24.24
2017-07-03T00:35:51.974Z,24.27
2017-07-03T00:36:52.003Z,24.24
2017-07-03T00:37:52.342Z,24.21
2017-07-03T00:38:52.366Z,24.24
2017-07-03T00:39:52.400Z,24.24
2017-07-03T00:40:52.421Z,24.21
2017-07-03T00:41:52.450Z,24.2
2017-07-03T00:42:52.163Z,24.25
2017-07-03T00:43:52.189Z,24.21
2017-07-03T00:44:52.528Z,24.21
2017-07-03T00:45:52.250Z,24.22
2017-07-03T00:46:52.273Z,24.24
2017-07-03T00:47:52.602Z,24.25
2017-07-03T00:48:52.376Z,24.22
2017-07-03T00:49:52.676Z,24.24
2017-07-03T00:50:52.698Z,24.22
2017-07-03T00:51:52.413Z,24.2
2017-07-03T00:52:52.451Z,24.18
2017-07-03T00:53:52.152Z,24.22
2017-07-03T00:54:52.798Z,24.2
2017-07-03T00:55:52.840Z,24.21
2017-07-03T00:56:52.554Z,24.21
2017-07-03T00:57:52.587Z,24.27
2017-07-03T00:58:52.290Z,24.21
2017-07-03T00:59:53.209Z,24.22
2017-07-03T01:00:52.661Z,24.21
2017-07-03T01:01:52.693Z,24.27
2017-07-03T01:02:53.030Z,24.16
2017-07-03T01:03:53.061Z,24.16
2017-07-03T01:04:53.016Z,24.22
2017-07-03T01:05:53.123Z,24.16
2017-07-03T01:06:53.141Z,24.22
2017-07-03T01:07:53.164Z,24.3
2017-07-03T01:08:53.191Z,24.25
2017-07-03T01:09:53.212Z,24.18
2017-07-03T01:10:53.248Z,24.27
2017-07-03T01:11:53.278Z,24.22
2017-07-03T01:12:52.997Z,24.21
2017-07-03T01:13:53.335Z,24.22
2017-07-03T01:14:53.299Z,24.18
2017-07-03T01:15:53.397Z,24.16
2017-07-03T01:16:53.109Z,24.21
2017-07-03T01:17:53.444Z,24.16
2017-07-03T01:18:53.476Z,24.2
2017-07-03T01:19:53.803Z,24.24
2017-07-03T01:20:53.524Z,24.2
2017-07-03T01:21:53.250Z,24.18
2017-07-03T01:22:53.582Z,24.18
2017-07-03T01:23:53.599Z,24.18
2017-07-03T01:24:53.584Z,24.2
2017-07-03T01:25:53.344Z,24.21
2017-07-03T01:26:53.729Z,24.09
2017-07-03T01:27:53.419Z,24.16
2017-07-03T01:28:53.742Z,24.12
2017-07-03T01:29:53.716Z,24.08
2017-07-03T01:30:53.492Z,24.21
2017-07-03T01:31:53.508Z,24.09
2017-07-03T01:32:53.861Z,24.1
2017-07-03T01:33:53.873Z,24.1
2017-07-03T01:34:54.209Z,24.02
2017-07-03T01:35:53.632Z,24.08
2017-07-03T01:36:53.966Z,24.2
2017-07-03T01:37:53.998Z,24.15
2017-07-03T01:38:54.023Z,24.13
2017-07-03T01:39:54.295Z,24.08
2017-07-03T01:40:53.764Z,24.13
2017-07-03T01:41:54.110Z,24.12
2017-07-03T01:42:54.133Z,24.18
2017-07-03T01:43:53.534Z,24.13
2017-07-03T01:44:54.496Z,24.13
2017-07-03T01:45:53.905Z,24.13
2017-07-03T01:46:53.937Z,24.06
2017-07-03T01:47:54.267Z,24.13
2017-07-03T01:48:54.287Z,24.13
2017-07-03T01:49:54.334Z,24.12
2017-07-03T01:50:54.039Z,24.12
2017-07-03T01:51:54.061Z,24.08
2017-07-03T01:52:54.084Z,24.09
2017-07-03T01:53:54.440Z,24.13
2017-07-03T01:54:54.452Z,24.16
2017-07-03T01:55:54.177Z,24.12
2017-07-03T01:56:54.216Z,24.12
2017-07-03T01:57:54.534Z,24.08
2017-07-03T01:58:54.574Z,24.13
2017-07-03T01:59:54.612Z,24.08
2017-07-03T02:00:54.312Z,24.08
2017-07-03T02:01:54.649Z,24.1
2017-07-03T02:02:54.378Z,24.05
2017-07-03T02:03:54.715Z,24.06
2017-07-03T02:04:54.443Z,24.09
2017-07-03T02:05:54.460Z,24.08
2017-07-03T02:06:54.806Z,24.08
2017-07-03T02:07:54.822Z,24.12
2017-07-03T02:08:54.533Z,24.06
2017-07-03T02:09:54.571Z,24.09
2017-07-03T02:10:54.920Z,24.05
2017-07-03T02:11:54.925Z,24.08
2017-07-03T02:12:54.968Z,24.1
2017-07-03T02:13:54.991Z,24.08
2017-07-03T02:14:54.712Z,24.13
2017-07-03T02:15:55.040Z,24.08
2017-07-03T02:16:55.085Z,24.06
2017-07-03T02:17:54.802Z,24.03
2017-07-03T02:18:54.814Z,24
2017-07-03T02:19:55.164Z,24.05
2017-07-03T02:20:55.197Z,24.03
2017-07-03T02:21:55.217Z,24
2017-07-03T02:22:55.241Z,23.91
2017-07-03T02:23:54.948Z,23.97
2017-07-03T02:24:55.288Z,23.97
2017-07-03T02:25:55.008Z,24
2017-07-03T02:26:55.032Z,23.97
2017-07-03T02:27:55.070Z,24
2017-07-03T02:28:55.393Z,23.98
2017-07-03T02:29:55.439Z,24.02
2017-07-03T02:30:54.844Z,23.98
2017-07-03T02:31:55.490Z,23.98
2017-07-03T02:32:55.198Z,23.98
2017-07-03T02:33:55.533Z,23.95
2017-07-03T02:34:55.263Z,23.97
2017-07-03T02:35:55.596Z,23.91
2017-07-03T02:36:55.620Z,23.94
2017-07-03T02:37:55.342Z,23.94
2017-07-03T02:38:55.683Z,23.95
2017-07-03T02:39:55.752Z,23.84
2017-07-03T02:40:55.736Z,23.9
2017-07-03T02:41:55.760Z,23.91
2017-07-03T02:42:55.478Z,23.95
2017-07-03T02:43:55.555Z,23.93
2017-07-03T02:44:55.543Z,23.88
2017-07-03T02:45:55.871Z,23.93
2017-07-03T02:46:55.901Z,23.93
2017-07-03T02:47:55.917Z,23.93
2017-07-03T02:48:55.951Z,23.93
2017-07-03T02:49:55.666Z,23.87
2017-07-03T02:50:55.699Z,23.95
2017-07-03T02:51:55.733Z,23.94
2017-07-03T02:52:55.746Z,23.94
2017-07-03T02:53:55.769Z,23.97
2017-07-03T02:54:55.807Z,23.93
2017-07-03T02:55:56.144Z,23.9
2017-07-03T02:56:55.552Z,23.98
2017-07-03T02:57:55.890Z,23.93
2017-07-03T02:58:56.231Z,23.93
2017-07-03T02:59:56.265Z,23.94
2017-07-03T03:00:56.292Z,23.94
2017-07-03T03:01:56.313Z,23.97
2017-07-03T03:02:56.345Z,23.95
2017-07-03T03:03:56.430Z,23.97
2017-07-03T03:04:56.400Z,24
2017-07-03T03:05:56.371Z,24.02
2017-07-03T03:06:56.145Z,23.97
2017-07-03T03:07:56.211Z,23.97
2017-07-03T03:08:56.505Z,23.98
2017-07-03T03:09:56.538Z,23.98
2017-07-03T03:10:56.226Z,23.98
2017-07-03T03:11:56.601Z,23.98
2017-07-03T03:12:56.623Z,24.09
2017-07-03T03:13:56.634Z,23.98
2017-07-03T03:14:56.687Z,24.03
2017-07-03T03:15:57.000Z,23.98
2017-07-03T03:16:56.760Z,24.03
2017-07-03T03:17:56.759Z,24
2017-07-03T03:18:56.769Z,24
2017-07-03T03:19:56.493Z,24.02
2017-07-03T03:20:57.092Z,24.03
2017-07-03T03:21:56.872Z,24.02
2017-07-03T03:22:56.892Z,24
2017-07-03T03:23:56.921Z,24.03
2017-07-03T03:24:56.959Z,24.02
2017-07-03T03:25:57.227Z,24.02
2017-07-03T03:26:56.685Z,24.02
2017-07-03T03:27:57.033Z,24.03
2017-07-03T03:28:57.045Z,23.95
2017-07-03T03:29:57.091Z,24.13
2017-07-03T03:30:57.100Z,24.05
2017-07-03T03:31:57.136Z,24.06
2017-07-03T03:32:56.849Z,24.06
2017-07-03T03:33:56.566Z,24.08
2017-07-03T03:34:56.911Z,24.06
2017-07-03T03:35:57.224Z,24
2017-07-03T03:36:56.968Z,24.08
2017-07-03T03:37:57.304Z,24.13
2017-07-03T03:38:57.330Z,24.08
2017-07-03T03:39:57.047Z,24.08
2017-07-03T03:40:57.323Z,24.09
2017-07-03T03:41:57.416Z,24.08
2017-07-03T03:42:57.445Z,24.05
2017-07-03T03:43:57.164Z,24.03
2017-07-03T03:44:57.183Z,24.1
2017-07-03T03:45:57.775Z,24.05
2017-07-03T03:46:57.550Z,24.02
2017-07-03T03:47:56.957Z,24.06
2017-07-03T03:48:57.300Z,24.1
2017-07-03T03:49:57.316Z,24.08
2017-07-03T03:50:57.959Z,24.06
2017-07-03T03:51:57.380Z,24.08
2017-07-03T03:52:57.412Z,24.09
2017-07-03T03:53:57.736Z,24.1
2017-07-03T03:54:57.459Z,24.1
2017-07-03T03:55:58.047Z,24.09
2017-07-03T03:56:57.516Z,24.12
2017-07-03T03:57:57.865Z,24.1
2017-07-03T03:58:57.574Z,24.08
2017-07-03T03:59:57.910Z,24.12
2017-07-03T04:00:58.182Z,24.08
2017-07-03T04:01:57.967Z,24.13
2017-07-03T04:02:58.002Z,24.09
2017-07-03T04:03:58.022Z,24.12
2017-07-03T04:04:58.047Z,24.08
2017-07-03T04:05:58.378Z,24.08
2017-07-03T04:06:57.795Z,24.1
2017-07-03T04:07:58.120Z,24.1
2017-07-03T04:08:58.165Z,24.1
2017-07-03T04:09:57.875Z,24.18
2017-07-03T04:10:58.461Z,24.09
2017-07-03T04:11:58.247Z,24.13
2017-07-03T04:12:58.272Z,24.13
2017-07-03T04:13:58.297Z,24.13
2017-07-03T04:14:58.317Z,24.12
2017-07-03T04:15:58.042Z,24.22
2017-07-03T04:16:58.079Z,24.13
2017-07-03T04:17:58.409Z,24.08
2017-07-03T04:18:58.437Z,24.16
2017-07-03T04:19:58.469Z,24.16
2017-07-03T04:20:58.490Z,24.08
2017-07-03T04:21:58.508Z,24.13
2017-07-03T04:22:58.238Z,24.16
2017-07-03T04:23:58.570Z,24.18
2017-07-03T04:24:58.289Z,24.15
2017-07-03T04:25:58.319Z,24.15
2017-07-03T04:26:58.656Z,24.13
2017-07-03T04:27:58.692Z,24.15
2017-07-03T04:28:58.392Z,24.18
2017-07-03T04:29:58.741Z,24.08
2017-07-03T04:30:58.443Z,24.06
2017-07-03T04:31:58.478Z,24.22
2017-07-03T04:32:58.515Z,24.15
2017-07-03T04:33:58.546Z,24.13
2017-07-03T04:34:58.874Z,24.15
2017-07-03T04:35:58.907Z,24.2
2017-07-03T04:36:58.932Z,24.15
2017-07-03T04:37:58.643Z,24.2
2017-07-03T04:38:58.991Z,24.12
2017-07-03T04:39:59.006Z,24.16
2017-07-03T04:40:58.731Z,24.18
2017-07-03T04:41:59.084Z,24.18
2017-07-03T04:42:58.780Z,24.13
2017-07-03T04:43:59.121Z,24.2
2017-07-03T04:44:59.150Z,24.18
2017-07-03T04:45:59.179Z,24.15
2017-07-03T04:46:59.210Z,24.13
2017-07-03T04:47:58.616Z,24.18
2017-07-03T04:48:58.954Z,24.22
2017-07-03T04:49:59.289Z,24.18
2017-07-03T04:50:59.323Z,24.25
2017-07-03T04:51:59.338Z,24.21
2017-07-03T04:52:59.068Z,24.21
2017-07-03T04:53:59.396Z,24.16
2017-07-03T04:54:59.118Z,24.25
2017-07-03T04:55:58.822Z,24.21
2017-07-03T04:56:59.731Z,24.21
2017-07-03T04:57:59.189Z,24.21
2017-07-03T04:58:59.225Z,24.18
2017-07-03T04:59:59.249Z,24.18
2017-07-03T05:00:59.600Z,24.21
2017-07-03T05:01:59.868Z,24.22
2017-07-03T05:02:59.639Z,24.22
2017-07-03T05:03:59.680Z,24.2
2017-07-03T05:04:59.389Z,24.18
2017-07-03T05:05:59.422Z,24.24
2017-07-03T05:07:00.011Z,24.22
2017-07-03T05:07:59.781Z,24.28
2017-07-03T05:08:59.498Z,24.28
2017-07-03T05:09:59.841Z,24.32
2017-07-03T05:10:59.614Z,24.22
2017-07-03T05:12:00.140Z,24.21
2017-07-03T05:12:59.933Z,24.25
2017-07-03T05:13:59.636Z,24.25
2017-07-03T05:14:59.981Z,24.22
2017-07-03T05:16:00.008Z,24.27
2017-07-03T05:17:00.026Z,24.28
2017-07-03T05:18:00.072Z,24.28
2017-07-03T05:19:00.084Z,24.27
2017-07-03T05:20:00.112Z,24.28
2017-07-03T05:21:00.142Z,24.35
2017-07-03T05:22:00.105Z,24.34
2017-07-03T05:23:00.196Z,24.24
2017-07-03T05:24:00.236Z,24.3
2017-07-03T05:25:00.262Z,24.24
2017-07-03T05:26:00.292Z,24.24
2017-07-03T05:27:00.299Z,24.3
2017-07-03T05:28:00.024Z,24.25
2017-07-03T05:29:00.048Z,24.21
2017-07-03T05:30:00.394Z,24.28
2017-07-03T05:31:00.107Z,24.28
2017-07-03T05:32:00.706Z,24.3
2017-07-03T05:33:00.476Z,24.25
2017-07-03T05:34:00.512Z,24.28
2017-07-03T05:35:00.533Z,24.27
2017-07-03T05:36:00.542Z,24.24
2017-07-03T05:37:00.891Z,24.28
2017-07-03T05:38:00.305Z,24.3
2017-07-03T05:39:00.329Z,24.25
2017-07-03T05:40:00.362Z,24.31
2017-07-03T05:41:00.394Z,24.24
2017-07-03T05:42:01.018Z,24.3
2017-07-03T05:43:00.443Z,24.34
2017-07-03T05:44:00.511Z,24.34
2017-07-03T05:45:00.494Z,24.28
2017-07-03T05:46:00.840Z,24.25
2017-07-03T05:47:00.851Z,24.34
2017-07-03T05:48:00.577Z,24.25
2017-07-03T05:49:00.912Z,24.35
2017-07-03T05:50:00.949Z,24.28
2017-07-03T05:51:00.983Z,24.31
2017-07-03T05:52:01.286Z,24.32
2017-07-03T05:53:01.036Z,24.34
2017-07-03T05:54:00.740Z,24.39
2017-07-03T05:55:00.756Z,24.32
2017-07-03T05:56:00.798Z,24.32
2017-07-03T05:57:01.394Z,24.3
2017-07-03T05:58:00.867Z,24.31
2017-07-03T05:59:01.198Z,24.3
2017-07-03T06:00:00.922Z,24.45
2017-07-03T06:01:00.930Z,24.34
2017-07-03T06:02:01.279Z,24.31
2017-07-03T06:03:01.007Z,24.32
2017-07-03T06:04:01.340Z,24.42
2017-07-03T06:05:01.352Z,24.37
2017-07-03T06:06:01.394Z,24.42
2017-07-03T06:07:01.410Z,24.37
2017-07-03T06:08:01.445Z,24.43
2017-07-03T06:09:01.467Z,24.4
2017-07-03T06:10:01.505Z,24.5
2017-07-03T06:11:01.536Z,24.45
2017-07-03T06:12:01.555Z,24.4
2017-07-03T06:13:01.592Z,24.45
2017-07-03T06:14:01.629Z,24.42
2017-07-03T06:15:01.637Z,24.52
2017-07-03T06:16:01.670Z,24.47
2017-07-03T06:17:01.698Z,24.52
2017-07-03T06:18:01.424Z,24.42
2017-07-03T06:19:01.138Z,24.57
2017-07-03T06:20:01.465Z,24.47
2017-07-03T06:21:01.801Z,24.58
2017-07-03T06:22:01.526Z,24.52
2017-07-03T06:23:01.859Z,24.49
2017-07-03T06:24:01.888Z,24.49
2017-07-03T06:25:01.917Z,24.46
2017-07-03T06:26:01.649Z,24.52
2017-07-03T06:27:01.675Z,24.55
2017-07-03T06:28:01.696Z,24.46
2017-07-03T06:29:02.029Z,24.53
2017-07-03T06:30:01.736Z,24.52
2017-07-03T06:31:02.089Z,24.47
2017-07-03T06:32:02.113Z,24.52
2017-07-03T06:33:01.840Z,24.5
2017-07-03T06:34:02.164Z,24.47
2017-07-03T06:35:02.197Z,24.45
2017-07-03T06:36:01.917Z,24.5
2017-07-03T06:37:02.254Z,24.46
2017-07-03T06:38:01.979Z,24.52
2017-07-03T06:39:02.306Z,24.52
2017-07-03T06:40:02.021Z,24.61
2017-07-03T06:41:02.378Z,24.37
2017-07-03T06:42:02.397Z,24.52
2017-07-03T06:43:02.431Z,24.47
2017-07-03T06:44:02.142Z,24.52
2017-07-03T06:45:02.482Z,24.57
2017-07-03T06:46:02.502Z,24.42
2017-07-03T06:47:02.527Z,24.45
2017-07-03T06:48:02.567Z,24.45
2017-07-03T06:49:02.588Z,24.4
2017-07-03T06:50:02.603Z,24.57
2017-07-03T06:51:02.334Z,24.46
2017-07-03T06:52:02.672Z,24.47
2017-07-03T06:53:02.703Z,24.58
2017-07-03T06:54:02.426Z,24.53
2017-07-03T06:55:02.440Z,24.52
2017-07-03T06:56:02.466Z,24.5
2017-07-03T06:57:02.811Z,24.53
2017-07-03T06:58:02.530Z,24.52
2017-07-03T06:59:02.873Z,24.46
2017-07-03T07:00:02.575Z,24.53
2017-07-03T07:01:02.925Z,24.58
2017-07-03T07:02:02.958Z,24.46
2017-07-03T07:03:02.668Z,24.53
2017-07-03T07:04:02.697Z,24.53
2017-07-03T07:05:03.027Z,24.52
2017-07-03T07:06:03.063Z,24.45
2017-07-03T07:07:03.079Z,24.57
2017-07-03T07:08:03.118Z,24.45
2017-07-03T07:09:03.142Z,24.53
2017-07-03T07:10:02.864Z,24.57
2017-07-03T07:11:02.893Z,24.52
2017-07-03T07:12:02.922Z,24.62
2017-07-03T07:13:02.938Z,24.61
2017-07-03T07:14:03.284Z,24.53
2017-07-03T07:15:03.317Z,24.58
2017-07-03T07:16:03.336Z,24.58
2017-07-03T07:17:03.066Z,24.46
2017-07-03T07:18:02.771Z,24.55
2017-07-03T07:19:03.424Z,24.69
2017-07-03T07:20:03.455Z,24.53
2017-07-03T07:21:02.861Z,24.64
2017-07-03T07:22:03.192Z,24.65
2017-07-03T07:23:03.214Z,24.6
2017-07-03T07:24:03.256Z,24.67
2017-07-03T07:25:03.288Z,24.62
2017-07-03T07:26:03.622Z,24.64
2017-07-03T07:27:03.347Z,24.65
2017-07-03T07:28:03.052Z,24.62
2017-07-03T07:29:03.712Z,24.67
2017-07-03T07:30:03.732Z,24.61
2017-07-03T07:31:03.761Z,24.61
2017-07-03T07:32:03.795Z,24.76
2017-07-03T07:33:03.819Z,24.61
2017-07-03T07:34:03.834Z,24.62
2017-07-03T07:35:03.876Z,24.61
2017-07-03T07:36:03.900Z,24.62
2017-07-03T07:37:03.937Z,24.6
2017-07-03T07:38:03.963Z,24.6
2017-07-03T07:39:03.983Z,24.65
2017-07-03T07:40:04.485Z,24.61
2017-07-03T07:41:03.724Z,24.62
2017-07-03T07:42:04.062Z,24.6
2017-07-03T07:43:04.096Z,24.64
2017-07-03T07:44:04.128Z,24.58
2017-07-03T07:45:03.845Z,24.62
2017-07-03T07:46:04.173Z,24.58
2017-07-03T07:47:03.897Z,24.67
2017-07-03T07:48:04.229Z,24.76
2017-07-03T07:49:03.955Z,24.69
2017-07-03T07:50:04.295Z,24.68
2017-07-03T07:51:03.701Z,24.68
2017-07-03T07:52:04.353Z,24.73
2017-07-03T07:53:04.064Z,24.69
2017-07-03T07:54:03.771Z,24.71
2017-07-03T07:55:04.435Z,24.77
2017-07-03T07:56:04.481Z,24.76
2017-07-03T07:57:04.172Z,24.78
2017-07-03T07:58:04.767Z,24.83
2017-07-03T07:59:04.251Z,24.78
2017-07-03T08:00:04.291Z,24.73
2017-07-03T08:01:04.297Z,24.83
2017-07-03T08:02:04.638Z,24.77
2017-07-03T08:03:04.974Z,24.77
2017-07-03T08:04:04.064Z,24.77
2017-07-03T08:05:04.100Z,24.8
2017-07-03T08:06:04.120Z,24.84
2017-07-03T08:07:04.778Z,24.83
2017-07-03T08:08:04.726Z,24.84
2017-07-03T08:09:04.500Z,24.81
2017-07-03T08:10:04.568Z,24.78
2017-07-03T08:11:04.564Z,24.78
2017-07-03T08:12:04.622Z,24.77
2017-07-03T08:13:05.194Z,24.83
2017-07-03T08:14:04.979Z,24.81
2017-07-03T08:15:04.995Z,24.83
2017-07-03T08:16:05.023Z,24.87
2017-07-03T08:17:04.733Z,24.85
2017-07-03T08:18:05.034Z,24.91
2017-07-03T08:19:04.483Z,24.95
2017-07-03T08:20:05.132Z,24.99
2017-07-03T08:21:05.156Z,25
2017-07-03T08:22:05.185Z,24.99
2017-07-03T08:23:05.523Z,25
2017-07-03T08:24:05.251Z,24.96
2017-07-03T08:25:05.276Z,25.02
2017-07-03T08:26:04.995Z,25.06
2017-07-03T08:27:05.380Z,25
2017-07-03T08:28:05.657Z,25.08
2017-07-03T08:29:05.394Z,25.06
2017-07-03T08:30:05.105Z,25.06
2017-07-03T08:31:05.445Z,25.03
2017-07-03T08:32:05.165Z,25.1
2017-07-03T08:33:05.749Z,25.14
2017-07-03T08:34:05.535Z,25.14
2017-07-03T08:35:05.239Z,25.18
2017-07-03T08:36:05.588Z,25.08
2017-07-03T08:37:05.612Z,25.13
2017-07-03T08:38:05.938Z,25.15
2017-07-03T08:39:05.359Z,25.09
2017-07-03T08:40:05.702Z,25.17
2017-07-03T08:41:05.105Z,25.13
2017-07-03T08:42:05.760Z,25.15
2017-07-03T08:43:06.037Z,25.08
2017-07-03T08:44:05.815Z,25.15
2017-07-03T08:45:05.844Z,25.09
2017-07-03T08:46:05.864Z,25.15
2017-07-03T08:47:05.893Z,25.17
2017-07-03T08:48:05.853Z,25.14
2017-07-03T08:49:05.633Z,25.17
2017-07-03T08:50:05.665Z,25.13
2017-07-03T08:51:06.008Z,25.21
2017-07-03T08:52:06.032Z,25.14
2017-07-03T08:53:06.323Z,25.13
2017-07-03T08:54:06.089Z,25.09
2017-07-03T08:55:06.128Z,25.2
2017-07-03T08:56:06.156Z,25.06
2017-07-03T08:57:06.171Z,25.14
2017-07-03T08:58:06.507Z,25.15
2017-07-03T08:59:06.233Z,25.08
2017-07-03T09:00:05.965Z,25.23
2017-07-03T09:01:06.296Z,25.09
2017-07-03T09:02:06.009Z,25.09
2017-07-03T09:03:06.361Z,25.17
2017-07-03T09:04:06.390Z,25.18
2017-07-03T09:05:06.098Z,25.14
2017-07-03T09:06:06.432Z,25.2
2017-07-03T09:07:06.458Z,25.21
2017-07-03T09:08:06.494Z,25.24
2017-07-03T09:09:06.211Z,25.17
2017-07-03T09:10:06.547Z,25.23
2017-07-03T09:11:06.265Z,25.24
2017-07-03T09:12:06.296Z,25.17
2017-07-03T09:13:06.330Z,25.28
2017-07-03T09:14:06.674Z,25.25
2017-07-03T09:15:06.387Z,25.33
2017-07-03T09:16:06.408Z,25.33
2017-07-03T09:17:06.441Z,25.38
2017-07-03T09:18:06.777Z,25.46
2017-07-03T09:19:06.806Z,25.36
2017-07-03T09:20:06.515Z,25.38
2017-07-03T09:21:06.556Z,25.36
2017-07-03T09:22:06.897Z,25.45
2017-07-03T09:23:06.624Z,25.45
2017-07-03T09:24:06.966Z,25.47
2017-07-03T09:25:06.994Z,25.55
2017-07-03T09:26:06.708Z,25.47
2017-07-03T09:27:06.728Z,25.55
2017-07-03T09:28:06.750Z,25.47
2017-07-03T09:29:06.779Z,25.54
2017-07-03T09:30:06.822Z,25.52
2017-07-03T09:31:06.837Z,25.52
2017-07-03T09:32:07.169Z,25.52
2017-07-03T09:33:07.201Z,25.5
2017-07-03T09:34:07.229Z,25.46
2017-07-03T09:35:07.251Z,25.51
2017-07-03T09:36:06.964Z,25.52
2017-07-03T09:37:07.313Z,25.5
2017-07-03T09:38:07.342Z,25.47
2017-07-03T09:39:07.375Z,25.47
2017-07-03T09:40:07.409Z,25.64
2017-07-03T09:41:07.422Z,25.5
2017-07-03T09:42:07.464Z,25.52
2017-07-03T09:43:07.182Z,25.57
2017-07-03T09:44:07.814Z,25.55
2017-07-03T09:45:07.546Z,25.52
2017-07-03T09:46:07.570Z,25.58
2017-07-03T09:47:07.604Z,25.6
2017-07-03T09:48:07.326Z,25.6
2017-07-03T09:49:07.654Z,25.65
2017-07-03T09:50:07.687Z,25.6
2017-07-03T09:51:07.707Z,25.52
2017-07-03T09:52:07.745Z,25.54
2017-07-03T09:53:07.780Z,25.67
2017-07-03T09:54:07.741Z,25.69
2017-07-03T09:55:07.210Z,25.65
2017-07-03T09:56:07.864Z,25.73
2017-07-03T09:57:07.577Z,25.73
2017-07-03T09:58:07.914Z,25.75
2017-07-03T09:59:07.930Z,25.73
2017-07-03T10:00:07.669Z,25.7
2017-07-03T10:01:07.699Z,25.76
2017-07-03T10:02:07.731Z,25.8
2017-07-03T10:03:07.744Z,25.79
2017-07-03T10:04:08.391Z,25.73
2017-07-03T10:05:07.507Z,25.79
2017-07-03T10:06:08.143Z,25.77
2017-07-03T10:07:08.164Z,25.77
2017-07-03T10:08:08.268Z,25.8
2017-07-03T10:09:08.481Z,25.91
2017-07-03T10:10:07.939Z,25.83
2017-07-03T10:11:08.301Z,25.79
2017-07-03T10:12:08.021Z,25.92
2017-07-03T10:13:08.033Z,25.8
2017-07-03T10:14:08.626Z,25.88
2017-07-03T10:15:08.415Z,25.91
2017-07-03T10:16:08.427Z,25.9
2017-07-03T10:17:08.145Z,25.92
2017-07-03T10:18:08.486Z,25.91
2017-07-03T10:19:08.514Z,25.83
2017-07-03T10:20:08.547Z,25.95
2017-07-03T10:21:08.580Z,25.88
2017-07-03T10:22:08.612Z,25.82
2017-07-03T10:23:08.641Z,25.9
2017-07-03T10:24:08.969Z,25.87
2017-07-03T10:25:08.698Z,25.88
2017-07-03T10:26:08.727Z,25.87
2017-07-03T10:27:08.748Z,25.91
2017-07-03T10:28:08.773Z,25.97
2017-07-03T10:29:09.097Z,25.9
2017-07-03T10:30:08.534Z,25.9
2017-07-03T10:31:08.559Z,25.97
2017-07-03T10:32:08.891Z,25.97
2017-07-03T10:33:08.620Z,26.01
2017-07-03T10:34:09.201Z,26.05
2017-07-03T10:35:08.995Z,26.06
2017-07-03T10:36:08.695Z,26.05
2017-07-03T10:37:08.727Z,26.05
2017-07-03T10:38:09.057Z,26.05
2017-07-03T10:39:08.767Z,26.12
2017-07-03T10:40:09.127Z,26.05
2017-07-03T10:41:09.159Z,26.12
2017-07-03T10:42:08.874Z,26.09
2017-07-03T10:43:09.208Z,26.12
2017-07-03T10:44:09.184Z,26.13
2017-07-03T10:45:09.278Z,26.07
2017-07-03T10:46:08.987Z,26.1
2017-07-03T10:47:09.331Z,26.17
2017-07-03T10:48:09.355Z,26.23
2017-07-03T10:49:09.641Z,26.15
2017-07-03T10:50:09.426Z,26.23
2017-07-03T10:51:09.459Z,26.21
2017-07-03T10:52:09.172Z,26.25
2017-07-03T10:53:08.885Z,26.21
2017-07-03T10:54:09.796Z,26.33
2017-07-03T10:55:09.249Z,26.32
2017-07-03T10:56:09.283Z,26.3
2017-07-03T10:57:09.312Z,26.32
2017-07-03T10:58:09.024Z,26.32
2017-07-03T10:59:09.924Z,26.33
2017-07-03T11:00:09.697Z,26.35
2017-07-03T11:01:09.735Z,26.33
2017-07-03T11:02:09.767Z,26.36
2017-07-03T11:03:09.784Z,26.37
2017-07-03T11:04:10.074Z,26.44
2017-07-03T11:05:09.544Z,26.39
2017-07-03T11:06:09.881Z,26.39
2017-07-03T11:07:09.907Z,26.39
2017-07-03T11:08:09.940Z,26.44
2017-07-03T11:09:10.226Z,26.45
2017-07-03T11:10:09.998Z,26.39
2017-07-03T11:11:10.038Z,26.39
2017-07-03T11:12:10.052Z,26.47
2017-07-03T11:13:09.776Z,26.51
2017-07-03T11:14:10.412Z,26.44
2017-07-03T11:15:10.145Z,26.45
2017-07-03T11:16:10.174Z,26.44
2017-07-03T11:17:09.897Z,26.36
2017-07-03T11:18:10.232Z,26.48
2017-07-03T11:19:09.949Z,26.54
2017-07-03T11:20:09.971Z,26.52
2017-07-03T11:21:10.322Z,26.51
2017-07-03T11:22:10.355Z,26.43
2017-07-03T11:23:10.068Z,26.5
2017-07-03T11:24:10.106Z,26.57
2017-07-03T11:25:10.126Z,26.62
2017-07-03T11:26:10.150Z,26.57
2017-07-03T11:27:10.182Z,26.54
2017-07-03T11:28:10.520Z,26.57
2017-07-03T11:29:10.554Z,26.51
2017-07-03T11:30:10.599Z,26.52
2017-07-03T11:31:10.602Z,26.51
2017-07-03T11:32:10.641Z,26.55
2017-07-03T11:33:10.358Z,26.6
2017-07-03T11:34:10.701Z,26.54
2017-07-03T11:35:10.730Z,26.6
2017-07-03T11:36:10.766Z,26.6
2017-07-03T11:37:10.788Z,26.62
2017-07-03T11:38:10.818Z,26.55
2017-07-03T11:39:10.865Z,26.66
2017-07-03T11:40:10.578Z,26.6
2017-07-03T11:41:10.593Z,26.62
2017-07-03T11:42:10.623Z,26.7
2017-07-03T11:43:10.341Z,26.8
2017-07-03T11:44:11.001Z,26.85
2017-07-03T11:45:11.030Z,26.88
2017-07-03T11:46:11.042Z,26.97
2017-07-03T11:47:11.089Z,26.99
2017-07-03T11:48:11.121Z,27.22
2017-07-03T11:49:11.153Z,27.28
2017-07-03T11:50:11.176Z,27.32
2017-07-03T11:51:11.198Z,27.49
2017-07-03T11:52:11.235Z,27.54
2017-07-03T11:53:11.269Z,27.65
2017-07-03T11:54:11.300Z,27.78
2017-07-03T11:55:11.321Z,27.81
2017-07-03T11:56:11.360Z,28.02
2017-07-03T11:57:11.376Z,28.07
2017-07-03T11:58:11.432Z,28.19
2017-07-03T11:59:11.452Z,28.33
2017-07-03T12:00:11.172Z,28.34
2017-07-03T12:01:11.522Z,28.52
2017-07-03T12:02:11.556Z,28.61
2017-07-03T12:03:11.576Z,28.59
2017-07-03T12:04:11.661Z,28.76
2017-07-03T12:05:11.326Z,28.85
2017-07-03T12:06:11.681Z,28.98
2017-07-03T12:07:11.391Z,29.05
2017-07-03T12:08:11.419Z,29.14
2017-07-03T12:09:11.765Z,29.21
2017-07-03T12:10:11.477Z,29.27
2017-07-03T12:11:11.830Z,29.31
2017-07-03T12:12:11.551Z,29.43
2017-07-03T12:13:11.587Z,29.43
2017-07-03T12:14:11.923Z,29.43
2017-07-03T12:15:11.953Z,29.53
2017-07-03T12:16:11.678Z,29.65
2017-07-03T12:17:12.026Z,29.65
2017-07-03T12:18:12.061Z,29.78
2017-07-03T12:19:12.088Z,29.82
2017-07-03T12:20:11.806Z,29.92
2017-07-03T12:21:11.837Z,30.02
2017-07-03T12:22:11.866Z,30
2017-07-03T12:23:12.212Z,30.16
2017-07-03T12:24:12.257Z,30.31
2017-07-03T12:25:12.280Z,30.37
2017-07-03T12:26:12.322Z,30.38
2017-07-03T12:27:12.354Z,30.53
2017-07-03T12:28:12.085Z,30.64
2017-07-03T12:29:12.422Z,30.54
2017-07-03T12:30:12.392Z,30.73
2017-07-03T12:31:12.479Z,30.72
2017-07-03T12:32:12.510Z,30.7
2017-07-03T12:33:12.535Z,30.83
2017-07-03T12:34:12.273Z,30.89
2017-07-03T12:35:12.866Z,30.97
2017-07-03T12:36:12.634Z,31.04
2017-07-03T12:37:12.370Z,31.14
2017-07-03T12:38:12.408Z,31.1
2017-07-03T12:39:12.445Z,31.25
2017-07-03T12:40:12.726Z,31.26
2017-07-03T12:41:12.810Z,31.28
2017-07-03T12:42:12.540Z,31.32
2017-07-03T12:43:12.887Z,31.46
2017-07-03T12:44:12.911Z,31.44
2017-07-03T12:45:13.252Z,31.41
2017-07-03T12:46:12.974Z,31.54
2017-07-03T12:47:13.020Z,31.53
2017-07-03T12:48:12.743Z,31.54
2017-07-03T12:49:13.141Z,31.57
2017-07-03T12:50:13.057Z,31.47
2017-07-03T12:51:13.158Z,31.41
2017-07-03T12:52:12.866Z,31.31
2017-07-03T12:53:13.207Z,31.34
2017-07-03T12:54:12.632Z,31.29
2017-07-03T12:55:12.909Z,31.25
2017-07-03T12:56:13.007Z,31.21
2017-07-03T12:57:13.356Z,31.09